Kildare, Ireland
Current Conditions -  °F | °C
As of 6:00 PM on Monday 20 Oct 2014 (Local Time) from EIME Reporting Station
Broken Clouds Broken Clouds  
Wind Chill: 57°   Ceiling: 4000
Heat Index: 57°   Visibility: 6mi
Dew Point: 50°   Wind: 16mph
Humidity: 77%   Direction: 210°SSW
Pressure: 29.68"   Gusts: NA
Location:  53.16°N, 6.99°W
Report Text: EIME 201800Z 21014KT 9999 SCT020 BKN040 14/10 Q1005
Loading
Personal Weather Stations






























Interactive Weather Map
Tropical Storm Tracking
New forecast layout! Learn more

10-Day Weather Forecast

Advertisements
Track Severe Weather on mobile